sensor_id;sensor_type;location;lat;lon;timestamp;P1;durP1;ratioP1;P2;durP2;ratioP2
2173;SDS011;1093;51.424;11.764;2022-11-20T00:01:19;23.83;;;13.50;;
2173;SDS011;1093;51.424;11.764;2022-11-20T00:03:48;22.40;;;12.80;;
2173;SDS011;1093;51.424;11.764;2022-11-20T00:06:17;25.13;;;13.17;;
2173;SDS011;1093;51.424;11.764;2022-11-20T00:08:45;25.03;;;12.20;;
2173;SDS011;1093;51.424;11.764;2022-11-20T00:11:13;25.07;;;13.00;;
2173;SDS011;1093;51.424;11.764;2022-11-20T00:13:41;21.30;;;12.97;;
2173;SDS011;1093;51.424;11.764;2022-11-20T00:16:10;21.37;;;13.13;;
2173;SDS011;1093;51.424;11.764;2022-11-20T00:18:38;23.90;;;14.50;;
2173;SDS011;1093;51.424;11.764;2022-11-20T00:21:07;19.73;;;12.57;;
2173;SDS011;1093;51.424;11.764;2022-11-20T00:23:36;26.23;;;13.67;;
2173;SDS011;1093;51.424;11.764;2022-11-20T00:26:03;23.90;;;13.17;;
2173;SDS011;1093;51.424;11.764;2022-11-20T00:28:30;25.83;;;14.03;;
2173;SDS011;1093;51.424;11.764;2022-11-20T00:31:01;26.00;;;12.60;;
2173;SDS011;1093;51.424;11.764;2022-11-20T00:33:30;26.90;;;14.03;;
2173;SDS011;1093;51.424;11.764;2022-11-20T00:36:00;26.43;;;14.00;;
2173;SDS011;1093;51.424;11.764;2022-11-20T00:38:29;29.40;;;13.23;;
2173;SDS011;1093;51.424;11.764;2022-11-20T00:40:56;27.57;;;13.80;;
2173;SDS011;1093;51.424;11.764;2022-11-20T00:43:23;39.33;;;15.77;;
2173;SDS011;1093;51.424;11.764;2022-11-20T00:45:51;23.70;;;13.70;;
2173;SDS011;1093;51.424;11.764;2022-11-20T00:48:23;27.97;;;13.57;;
2173;SDS011;1093;51.424;11.764;2022-11-20T00:50:51;28.90;;;14.37;;
2173;SDS011;1093;51.424;11.764;2022-11-20T00:53:18;24.60;;;13.67;;
2173;SDS011;1093;51.424;11.764;2022-11-20T00:55:52;24.73;;;13.00;;
2173;SDS011;1093;51.424;11.764;2022-11-20T00:58:19;29.53;;;16.53;;
2173;SDS011;1093;51.424;11.764;2022-11-20T01:00:46;29.10;;;13.53;;
2173;SDS011;1093;51.424;11.764;2022-11-20T01:03:14;26.27;;;14.37;;
2173;SDS011;1093;51.424;11.764;2022-11-20T01:05:41;31.63;;;14.93;;
2173;SDS011;1093;51.424;11.764;2022-11-20T01:08:09;27.50;;;14.80;;
2173;SDS011;1093;51.424;11.764;2022-11-20T01:10:36;32.50;;;15.77;;
2173;SDS011;1093;51.424;11.764;2022-11-20T01:13:03;26.63;;;13.60;;
2173;SDS011;1093;51.424;11.764;2022-11-20T01:15:47;25.70;;;14.60;;
2173;SDS011;1093;51.424;11.764;2022-11-20T01:18:14;26.40;;;15.17;;
2173;SDS011;1093;51.424;11.764;2022-11-20T01:20:41;24.53;;;13.47;;
2173;SDS011;1093;51.424;11.764;2022-11-20T01:23:07;25.07;;;14.67;;
2173;SDS011;1093;51.424;11.764;2022-11-20T01:25:36;23.23;;;14.37;;
2173;SDS011;1093;51.424;11.764;2022-11-20T01:28:02;23.70;;;13.67;;
2173;SDS011;1093;51.424;11.764;2022-11-20T01:30:29;21.87;;;14.33;;
2173;SDS011;1093;51.424;11.764;2022-11-20T01:32:56;24.03;;;14.80;;
2173;SDS011;1093;51.424;11.764;2022-11-20T01:35:23;28.57;;;15.43;;
2173;SDS011;1093;51.424;11.764;2022-11-20T01:37:50;25.60;;;12.53;;
2173;SDS011;1093;51.424;11.764;2022-11-20T01:40:18;23.97;;;12.80;;
2173;SDS011;1093;51.424;11.764;2022-11-20T01:42:46;21.73;;;12.30;;
2173;SDS011;1093;51.424;11.764;2022-11-20T01:48:36;24.47;;;12.93;;
2173;SDS011;1093;51.424;11.764;2022-11-20T01:51:10;25.80;;;13.37;;
2173;SDS011;1093;51.424;11.764;2022-11-20T01:53:43;32.17;;;15.60;;
2173;SDS011;1093;51.424;11.764;2022-11-20T01:56:12;26.60;;;13.10;;
2173;SDS011;1093;51.424;11.764;2022-11-20T01:58:42;32.53;;;14.33;;
2173;SDS011;1093;51.424;11.764;2022-11-20T02:01:13;26.83;;;14.07;;
2173;SDS011;1093;51.424;11.764;2022-11-20T02:03:40;23.00;;;15.40;;
2173;SDS011;1093;51.424;11.764;2022-11-20T02:06:10;25.13;;;14.63;;
2173;SDS011;1093;51.424;11.764;2022-11-20T02:08:40;23.80;;;13.40;;
2173;SDS011;1093;51.424;11.764;2022-11-20T02:11:07;25.83;;;14.90;;
2173;SDS011;1093;51.424;11.764;2022-11-20T02:13:35;20.53;;;13.60;;
2173;SDS011;1093;51.424;11.764;2022-11-20T02:16:12;22.40;;;12.90;;
2173;SDS011;1093;51.424;11.764;2022-11-20T02:18:43;25.87;;;12.90;;
2173;SDS011;1093;51.424;11.764;2022-11-20T02:21:13;27.30;;;13.63;;
2173;SDS011;1093;51.424;11.764;2022-11-20T02:24:01;23.57;;;13.60;;
2173;SDS011;1093;51.424;11.764;2022-11-20T02:26:31;26.80;;;14.63;;
2173;SDS011;1093;51.424;11.764;2022-11-20T02:29:00;28.57;;;14.67;;
2173;SDS011;1093;51.424;11.764;2022-11-20T02:31:28;27.20;;;15.50;;
2173;SDS011;1093;51.424;11.764;2022-11-20T02:33:55;29.07;;;14.90;;
2173;SDS011;1093;51.424;11.764;2022-11-20T02:36:23;28.80;;;15.10;;
2173;SDS011;1093;51.424;11.764;2022-11-20T02:38:52;31.70;;;15.53;;
2173;SDS011;1093;51.424;11.764;2022-11-20T02:41:21;24.00;;;14.63;;
2173;SDS011;1093;51.424;11.764;2022-11-20T02:43:48;28.97;;;16.00;;
2173;SDS011;1093;51.424;11.764;2022-11-20T02:46:15;28.97;;;14.40;;
2173;SDS011;1093;51.424;11.764;2022-11-20T02:48:41;31.20;;;14.87;;
2173;SDS011;1093;51.424;11.764;2022-11-20T02:51:08;25.90;;;13.87;;
2173;SDS011;1093;51.424;11.764;2022-11-20T02:53:35;29.07;;;15.23;;
2173;SDS011;1093;51.424;11.764;2022-11-20T02:56:02;28.77;;;16.17;;
2173;SDS011;1093;51.424;11.764;2022-11-20T02:58:30;26.33;;;14.50;;
2173;SDS011;1093;51.424;11.764;2022-11-20T03:00:57;27.40;;;14.83;;
2173;SDS011;1093;51.424;11.764;2022-11-20T03:03:24;27.23;;;15.03;;
2173;SDS011;1093;51.424;11.764;2022-11-20T03:05:50;30.23;;;14.17;;
2173;SDS011;1093;51.424;11.764;2022-11-20T03:08:20;37.43;;;16.83;;
2173;SDS011;1093;51.424;11.764;2022-11-20T03:10:47;28.77;;;14.57;;
2173;SDS011;1093;51.424;11.764;2022-11-20T03:13:13;29.77;;;15.73;;
2173;SDS011;1093;51.424;11.764;2022-11-20T03:15:42;33.87;;;16.27;;
2173;SDS011;1093;51.424;11.764;2022-11-20T03:18:08;35.47;;;17.33;;
2173;SDS011;1093;51.424;11.764;2022-11-20T03:20:35;21.23;;;14.17;;
2173;SDS011;1093;51.424;11.764;2022-11-20T03:23:02;33.33;;;14.87;;
2173;SDS011;1093;51.424;11.764;2022-11-20T03:25:29;28.23;;;14.77;;
2173;SDS011;1093;51.424;11.764;2022-11-20T03:27:55;30.90;;;14.57;;
2173;SDS011;1093;51.424;11.764;2022-11-20T03:30:22;28.37;;;14.80;;
2173;SDS011;1093;51.424;11.764;2022-11-20T03:32:52;29.37;;;16.17;;
2173;SDS011;1093;51.424;11.764;2022-11-20T03:35:19;23.47;;;14.77;;
2173;SDS011;1093;51.424;11.764;2022-11-20T03:37:46;27.33;;;14.80;;
2173;SDS011;1093;51.424;11.764;2022-11-20T03:40:13;26.03;;;15.70;;
2173;SDS011;1093;51.424;11.764;2022-11-20T03:42:40;20.07;;;13.60;;
2173;SDS011;1093;51.424;11.764;2022-11-20T03:45:13;29.47;;;16.17;;
2173;SDS011;1093;51.424;11.764;2022-11-20T03:47:42;33.70;;;15.57;;
2173;SDS011;1093;51.424;11.764;2022-11-20T03:50:11;33.63;;;16.13;;
2173;SDS011;1093;51.424;11.764;2022-11-20T03:52:38;27.80;;;15.77;;
2173;SDS011;1093;51.424;11.764;2022-11-20T03:55:06;24.43;;;14.23;;
2173;SDS011;1093;51.424;11.764;2022-11-20T03:57:33;33.60;;;16.27;;
2173;SDS011;1093;51.424;11.764;2022-11-20T04:00:00;25.77;;;13.50;;
2173;SDS011;1093;51.424;11.764;2022-11-20T04:02:27;32.17;;;15.60;;
2173;SDS011;1093;51.424;11.764;2022-11-20T04:04:53;25.73;;;13.70;;
2173;SDS011;1093;51.424;11.764;2022-11-20T04:07:22;29.67;;;16.53;;
2173;SDS011;1093;51.424;11.764;2022-11-20T04:09:48;30.57;;;16.10;;
2173;SDS011;1093;51.424;11.764;2022-11-20T04:12:15;27.00;;;16.30;;
2173;SDS011;1093;51.424;11.764;2022-11-20T04:14:42;29.40;;;15.40;;
2173;SDS011;1093;51.424;11.764;2022-11-20T04:17:09;26.03;;;16.80;;
2173;SDS011;1093;51.424;11.764;2022-11-20T04:19:36;27.17;;;15.60;;
2173;SDS011;1093;51.424;11.764;2022-11-20T04:22:02;30.10;;;17.13;;
2173;SDS011;1093;51.424;11.764;2022-11-20T04:24:30;24.63;;;14.80;;
2173;SDS011;1093;51.424;11.764;2022-11-20T04:26:57;30.63;;;15.63;;
2173;SDS011;1093;51.424;11.764;2022-11-20T04:29:24;26.67;;;16.30;;
2173;SDS011;1093;51.424;11.764;2022-11-20T04:31:51;28.87;;;17.40;;
2173;SDS011;1093;51.424;11.764;2022-11-20T04:34:18;29.10;;;16.07;;
2173;SDS011;1093;51.424;11.764;2022-11-20T04:36:45;29.10;;;16.60;;
2173;SDS011;1093;51.424;11.764;2022-11-20T04:39:12;24.43;;;15.00;;
2173;SDS011;1093;51.424;11.764;2022-11-20T04:41:41;27.63;;;15.70;;
2173;SDS011;1093;51.424;11.764;2022-11-20T04:44:09;27.83;;;14.93;;
2173;SDS011;1093;51.424;11.764;2022-11-20T04:46:37;34.93;;;17.20;;
2173;SDS011;1093;51.424;11.764;2022-11-20T04:49:05;31.07;;;16.30;;
2173;SDS011;1093;51.424;11.764;2022-11-20T04:51:33;28.67;;;16.07;;
2173;SDS011;1093;51.424;11.764;2022-11-20T04:53:59;29.80;;;15.47;;
2173;SDS011;1093;51.424;11.764;2022-11-20T04:56:26;31.57;;;15.37;;
2173;SDS011;1093;51.424;11.764;2022-11-20T04:58:54;30.57;;;15.90;;
2173;SDS011;1093;51.424;11.764;2022-11-20T05:01:22;31.23;;;16.63;;
2173;SDS011;1093;51.424;11.764;2022-11-20T05:03:50;32.30;;;15.23;;
2173;SDS011;1093;51.424;11.764;2022-11-20T05:06:19;32.93;;;14.97;;
2173;SDS011;1093;51.424;11.764;2022-11-20T05:08:47;27.57;;;14.80;;
2173;SDS011;1093;51.424;11.764;2022-11-20T05:11:14;27.23;;;16.10;;
2173;SDS011;1093;51.424;11.764;2022-11-20T05:13:42;31.77;;;16.73;;
2173;SDS011;1093;51.424;11.764;2022-11-20T05:16:11;41.13;;;15.97;;
2173;SDS011;1093;51.424;11.764;2022-11-20T05:18:40;32.30;;;15.97;;
2173;SDS011;1093;51.424;11.764;2022-11-20T05:21:07;27.27;;;15.97;;
2173;SDS011;1093;51.424;11.764;2022-11-20T05:23:35;26.67;;;17.70;;
2173;SDS011;1093;51.424;11.764;2022-11-20T05:26:03;33.07;;;19.67;;
2173;SDS011;1093;51.424;11.764;2022-11-20T05:28:31;30.53;;;15.33;;
2173;SDS011;1093;51.424;11.764;2022-11-20T05:31:03;27.43;;;16.20;;
2173;SDS011;1093;51.424;11.764;2022-11-20T05:33:32;28.20;;;15.47;;
2173;SDS011;1093;51.424;11.764;2022-11-20T05:35:59;31.97;;;16.90;;
2173;SDS011;1093;51.424;11.764;2022-11-20T05:38:26;31.17;;;17.40;;
2173;SDS011;1093;51.424;11.764;2022-11-20T05:40:53;27.83;;;13.97;;
2173;SDS011;1093;51.424;11.764;2022-11-20T05:43:20;26.00;;;15.77;;
2173;SDS011;1093;51.424;11.764;2022-11-20T05:45:51;36.03;;;17.20;;
2173;SDS011;1093;51.424;11.764;2022-11-20T05:48:19;30.97;;;16.07;;
2173;SDS011;1093;51.424;11.764;2022-11-20T05:50:47;27.70;;;15.70;;
2173;SDS011;1093;51.424;11.764;2022-11-20T05:53:14;28.27;;;16.90;;
2173;SDS011;1093;51.424;11.764;2022-11-20T05:55:41;39.60;;;18.53;;
2173;SDS011;1093;51.424;11.764;2022-11-20T05:58:07;25.80;;;15.10;;
2173;SDS011;1093;51.424;11.764;2022-11-20T06:00:34;33.47;;;15.20;;
2173;SDS011;1093;51.424;11.764;2022-11-20T06:03:01;33.20;;;18.00;;
2173;SDS011;1093;51.424;11.764;2022-11-20T06:05:28;43.50;;;16.80;;
2173;SDS011;1093;51.424;11.764;2022-11-20T06:07:56;30.90;;;16.60;;
2173;SDS011;1093;51.424;11.764;2022-11-20T06:10:23;29.10;;;16.43;;
2173;SDS011;1093;51.424;11.764;2022-11-20T06:12:50;33.77;;;16.50;;
2173;SDS011;1093;51.424;11.764;2022-11-20T06:15:17;27.93;;;14.90;;
2173;SDS011;1093;51.424;11.764;2022-11-20T06:17:43;26.33;;;14.50;;
2173;SDS011;1093;51.424;11.764;2022-11-20T06:20:10;33.73;;;16.87;;
2173;SDS011;1093;51.424;11.764;2022-11-20T06:22:37;33.73;;;16.57;;
2173;SDS011;1093;51.424;11.764;2022-11-20T06:25:05;28.57;;;16.77;;
2173;SDS011;1093;51.424;11.764;2022-11-20T06:27:32;38.57;;;16.70;;
2173;SDS011;1093;51.424;11.764;2022-11-20T06:29:59;25.90;;;15.20;;
2173;SDS011;1093;51.424;11.764;2022-11-20T06:32:26;27.57;;;16.03;;
2173;SDS011;1093;51.424;11.764;2022-11-20T06:34:53;30.40;;;17.33;;
2173;SDS011;1093;51.424;11.764;2022-11-20T06:37:19;25.37;;;15.90;;
2173;SDS011;1093;51.424;11.764;2022-11-20T06:39:46;33.40;;;16.73;;
2173;SDS011;1093;51.424;11.764;2022-11-20T06:42:14;29.40;;;16.47;;
2173;SDS011;1093;51.424;11.764;2022-11-20T06:44:41;27.77;;;16.03;;
2173;SDS011;1093;51.424;11.764;2022-11-20T06:47:08;33.70;;;16.57;;
2173;SDS011;1093;51.424;11.764;2022-11-20T06:49:35;30.57;;;15.13;;
2173;SDS011;1093;51.424;11.764;2022-11-20T06:52:03;33.70;;;17.60;;
2173;SDS011;1093;51.424;11.764;2022-11-20T06:54:30;37.97;;;17.97;;
2173;SDS011;1093;51.424;11.764;2022-11-20T06:56:57;37.80;;;18.47;;
2173;SDS011;1093;51.424;11.764;2022-11-20T06:59:25;30.73;;;16.87;;
2173;SDS011;1093;51.424;11.764;2022-11-20T07:01:52;26.73;;;14.60;;
2173;SDS011;1093;51.424;11.764;2022-11-20T07:04:18;28.20;;;16.10;;
2173;SDS011;1093;51.424;11.764;2022-11-20T07:06:45;33.83;;;16.50;;
2173;SDS011;1093;51.424;11.764;2022-11-20T07:09:12;33.93;;;17.77;;
2173;SDS011;1093;51.424;11.764;2022-11-20T07:11:39;26.70;;;15.40;;
2173;SDS011;1093;51.424;11.764;2022-11-20T07:14:06;31.83;;;16.80;;
2173;SDS011;1093;51.424;11.764;2022-11-20T07:16:34;34.17;;;17.30;;
2173;SDS011;1093;51.424;11.764;2022-11-20T07:19:01;28.60;;;16.63;;
2173;SDS011;1093;51.424;11.764;2022-11-20T07:21:27;80.27;;;20.33;;
2173;SDS011;1093;51.424;11.764;2022-11-20T07:23:54;32.43;;;15.50;;
2173;SDS011;1093;51.424;11.764;2022-11-20T07:26:21;30.90;;;17.73;;
2173;SDS011;1093;51.424;11.764;2022-11-20T07:28:48;36.70;;;17.03;;
2173;SDS011;1093;51.424;11.764;2022-11-20T07:31:15;34.17;;;17.17;;
2173;SDS011;1093;51.424;11.764;2022-11-20T07:33:43;38.67;;;17.13;;
2173;SDS011;1093;51.424;11.764;2022-11-20T07:36:11;30.30;;;16.47;;
2173;SDS011;1093;51.424;11.764;2022-11-20T07:38:38;43.87;;;20.00;;
2173;SDS011;1093;51.424;11.764;2022-11-20T07:41:05;39.07;;;20.27;;
2173;SDS011;1093;51.424;11.764;2022-11-20T07:43:32;32.67;;;18.37;;
2173;SDS011;1093;51.424;11.764;2022-11-20T07:45:59;38.27;;;18.80;;
2173;SDS011;1093;51.424;11.764;2022-11-20T07:48:26;40.67;;;21.20;;
2173;SDS011;1093;51.424;11.764;2022-11-20T07:50:54;45.87;;;20.67;;
2173;SDS011;1093;51.424;11.764;2022-11-20T07:53:21;41.77;;;20.03;;
2173;SDS011;1093;51.424;11.764;2022-11-20T07:55:48;37.93;;;19.17;;
2173;SDS011;1093;51.424;11.764;2022-11-20T07:58:17;35.40;;;17.40;;
2173;SDS011;1093;51.424;11.764;2022-11-20T08:00:44;37.00;;;18.93;;
2173;SDS011;1093;51.424;11.764;2022-11-20T08:03:10;34.13;;;18.77;;
2173;SDS011;1093;51.424;11.764;2022-11-20T08:05:37;30.60;;;15.83;;
2173;SDS011;1093;51.424;11.764;2022-11-20T08:08:06;32.57;;;16.90;;
2173;SDS011;1093;51.424;11.764;2022-11-20T08:10:33;32.63;;;16.17;;
2173;SDS011;1093;51.424;11.764;2022-11-20T08:12:59;32.43;;;16.97;;
2173;SDS011;1093;51.424;11.764;2022-11-20T08:15:47;32.47;;;15.20;;
2173;SDS011;1093;51.424;11.764;2022-11-20T08:18:15;26.13;;;15.70;;
2173;SDS011;1093;51.424;11.764;2022-11-20T08:20:43;28.50;;;17.47;;
2173;SDS011;1093;51.424;11.764;2022-11-20T08:23:11;34.13;;;16.57;;
2173;SDS011;1093;51.424;11.764;2022-11-20T08:25:38;29.80;;;15.93;;
2173;SDS011;1093;51.424;11.764;2022-11-20T08:28:07;32.63;;;16.20;;
2173;SDS011;1093;51.424;11.764;2022-11-20T08:30:34;28.53;;;17.00;;
2173;SDS011;1093;51.424;11.764;2022-11-20T08:33:02;28.20;;;15.60;;
2173;SDS011;1093;51.424;11.764;2022-11-20T08:35:32;29.90;;;14.23;;
2173;SDS011;1093;51.424;11.764;2022-11-20T08:37:59;31.70;;;14.37;;
2173;SDS011;1093;51.424;11.764;2022-11-20T08:40:28;30.33;;;14.60;;
2173;SDS011;1093;51.424;11.764;2022-11-20T08:42:54;29.83;;;15.33;;
2173;SDS011;1093;51.424;11.764;2022-11-20T08:45:21;31.63;;;15.83;;
2173;SDS011;1093;51.424;11.764;2022-11-20T08:47:48;28.50;;;15.67;;
2173;SDS011;1093;51.424;11.764;2022-11-20T08:50:16;30.63;;;15.17;;
2173;SDS011;1093;51.424;11.764;2022-11-20T08:52:43;29.67;;;14.70;;
2173;SDS011;1093;51.424;11.764;2022-11-20T08:55:10;27.57;;;15.37;;
2173;SDS011;1093;51.424;11.764;2022-11-20T08:57:38;34.60;;;15.63;;
2173;SDS011;1093;51.424;11.764;2022-11-20T09:00:06;28.47;;;14.00;;
2173;SDS011;1093;51.424;11.764;2022-11-20T09:02:34;27.23;;;13.60;;
2173;SDS011;1093;51.424;11.764;2022-11-20T09:05:00;22.93;;;12.77;;
2173;SDS011;1093;51.424;11.764;2022-11-20T09:07:28;29.70;;;14.73;;
2173;SDS011;1093;51.424;11.764;2022-11-20T09:09:55;27.30;;;14.30;;
2173;SDS011;1093;51.424;11.764;2022-11-20T09:12:22;33.47;;;15.47;;
2173;SDS011;1093;51.424;11.764;2022-11-20T09:14:50;34.20;;;14.53;;
2173;SDS011;1093;51.424;11.764;2022-11-20T09:17:17;27.67;;;14.17;;
2173;SDS011;1093;51.424;11.764;2022-11-20T09:19:45;29.90;;;14.80;;
2173;SDS011;1093;51.424;11.764;2022-11-20T09:22:12;29.47;;;15.03;;
2173;SDS011;1093;51.424;11.764;2022-11-20T09:24:38;30.50;;;15.00;;
2173;SDS011;1093;51.424;11.764;2022-11-20T09:27:05;38.10;;;16.67;;
2173;SDS011;1093;51.424;11.764;2022-11-20T09:29:32;32.50;;;15.00;;
2173;SDS011;1093;51.424;11.764;2022-11-20T09:32:00;29.00;;;14.23;;
2173;SDS011;1093;51.424;11.764;2022-11-20T09:34:27;28.30;;;13.93;;
2173;SDS011;1093;51.424;11.764;2022-11-20T09:36:54;35.47;;;15.93;;
2173;SDS011;1093;51.424;11.764;2022-11-20T09:39:21;26.00;;;13.17;;
2173;SDS011;1093;51.424;11.764;2022-11-20T09:44:49;26.73;;;12.97;;
2173;SDS011;1093;51.424;11.764;2022-11-20T09:47:31;26.17;;;14.00;;
2173;SDS011;1093;51.424;11.764;2022-11-20T09:50:14;29.03;;;14.23;;
2173;SDS011;1093;51.424;11.764;2022-11-20T09:52:52;30.53;;;14.30;;
2173;SDS011;1093;51.424;11.764;2022-11-20T09:55:29;25.37;;;13.40;;
2173;SDS011;1093;51.424;11.764;2022-11-20T09:57:57;29.50;;;15.83;;
2173;SDS011;1093;51.424;11.764;2022-11-20T10:00:26;29.80;;;14.03;;
2173;SDS011;1093;51.424;11.764;2022-11-20T10:02:58;26.07;;;14.30;;
2173;SDS011;1093;51.424;11.764;2022-11-20T10:05:30;29.13;;;14.40;;
2173;SDS011;1093;51.424;11.764;2022-11-20T10:08:07;35.63;;;16.00;;
2173;SDS011;1093;51.424;11.764;2022-11-20T10:10:42;29.60;;;15.07;;
2173;SDS011;1093;51.424;11.764;2022-11-20T10:13:15;32.53;;;15.40;;
2173;SDS011;1093;51.424;11.764;2022-11-20T10:15:56;27.60;;;16.00;;
2173;SDS011;1093;51.424;11.764;2022-11-20T10:18:40;31.63;;;13.43;;
2173;SDS011;1093;51.424;11.764;2022-11-20T10:21:21;32.33;;;14.23;;
2173;SDS011;1093;51.424;11.764;2022-11-20T10:24:01;32.07;;;13.37;;
2173;SDS011;1093;51.424;11.764;2022-11-20T10:26:44;29.53;;;14.93;;
2173;SDS011;1093;51.424;11.764;2022-11-20T10:29:21;29.27;;;15.33;;
2173;SDS011;1093;51.424;11.764;2022-11-20T10:31:56;30.33;;;14.60;;
2173;SDS011;1093;51.424;11.764;2022-11-20T10:34:30;28.13;;;15.07;;
2173;SDS011;1093;51.424;11.764;2022-11-20T10:37:02;29.30;;;15.43;;
2173;SDS011;1093;51.424;11.764;2022-11-20T10:39:36;32.43;;;14.33;;
2173;SDS011;1093;51.424;11.764;2022-11-20T10:42:11;30.03;;;16.40;;
2173;SDS011;1093;51.424;11.764;2022-11-20T10:44:57;27.90;;;14.50;;
2173;SDS011;1093;51.424;11.764;2022-11-20T10:47:30;34.57;;;17.33;;
2173;SDS011;1093;51.424;11.764;2022-11-20T10:50:01;28.80;;;15.37;;
2173;SDS011;1093;51.424;11.764;2022-11-20T10:52:32;26.60;;;14.57;;
2173;SDS011;1093;51.424;11.764;2022-11-20T10:55:06;28.93;;;15.10;;
2173;SDS011;1093;51.424;11.764;2022-11-20T10:57:47;24.33;;;13.80;;
2173;SDS011;1093;51.424;11.764;2022-11-20T11:00:20;21.67;;;13.67;;
2173;SDS011;1093;51.424;11.764;2022-11-20T11:02:47;25.10;;;14.40;;
2173;SDS011;1093;51.424;11.764;2022-11-20T11:05:20;28.27;;;13.50;;
2173;SDS011;1093;51.424;11.764;2022-11-20T11:07:56;32.13;;;13.77;;
2173;SDS011;1093;51.424;11.764;2022-11-20T11:10:26;20.70;;;12.97;;
2173;SDS011;1093;51.424;11.764;2022-11-20T11:12:59;25.53;;;13.80;;
2173;SDS011;1093;51.424;11.764;2022-11-20T11:15:27;26.33;;;14.37;;
2173;SDS011;1093;51.424;11.764;2022-11-20T11:17:55;23.17;;;13.00;;
2173;SDS011;1093;51.424;11.764;2022-11-20T11:20:24;24.70;;;13.70;;
2173;SDS011;1093;51.424;11.764;2022-11-20T11:22:52;24.23;;;14.60;;
2173;SDS011;1093;51.424;11.764;2022-11-20T11:25:21;32.20;;;14.00;;
2173;SDS011;1093;51.424;11.764;2022-11-20T11:27:50;26.27;;;14.10;;
2173;SDS011;1093;51.424;11.764;2022-11-20T11:30:18;29.37;;;16.10;;
2173;SDS011;1093;51.424;11.764;2022-11-20T11:32:46;26.93;;;13.33;;
2173;SDS011;1093;51.424;11.764;2022-11-20T11:35:20;25.73;;;14.40;;
2173;SDS011;1093;51.424;11.764;2022-11-20T11:37:54;26.80;;;13.73;;
2173;SDS011;1093;51.424;11.764;2022-11-20T11:40:29;26.23;;;14.17;;
2173;SDS011;1093;51.424;11.764;2022-11-20T11:42:59;26.53;;;14.53;;
2173;SDS011;1093;51.424;11.764;2022-11-20T11:45:28;23.33;;;12.93;;
2173;SDS011;1093;51.424;11.764;2022-11-20T11:47:55;22.20;;;13.70;;
2173;SDS011;1093;51.424;11.764;2022-11-20T11:50:26;23.60;;;14.40;;
2173;SDS011;1093;51.424;11.764;2022-11-20T11:52:59;26.07;;;14.23;;
2173;SDS011;1093;51.424;11.764;2022-11-20T11:55:35;22.30;;;12.33;;
2173;SDS011;1093;51.424;11.764;2022-11-20T11:58:08;22.53;;;12.57;;
2173;SDS011;1093;51.424;11.764;2022-11-20T12:00:45;29.10;;;15.47;;
2173;SDS011;1093;51.424;11.764;2022-11-20T12:03:21;23.27;;;13.40;;
2173;SDS011;1093;51.424;11.764;2022-11-20T12:05:55;29.60;;;13.37;;
2173;SDS011;1093;51.424;11.764;2022-11-20T12:08:27;26.97;;;14.50;;
2173;SDS011;1093;51.424;11.764;2022-11-20T12:10:59;26.40;;;13.93;;
2173;SDS011;1093;51.424;11.764;2022-11-20T12:13:34;31.90;;;15.93;;
2173;SDS011;1093;51.424;11.764;2022-11-20T12:16:10;23.93;;;13.30;;
2173;SDS011;1093;51.424;11.764;2022-11-20T12:18:39;30.00;;;13.70;;
2173;SDS011;1093;51.424;11.764;2022-11-20T12:21:18;19.50;;;12.00;;
2173;SDS011;1093;51.424;11.764;2022-11-20T12:23:53;22.27;;;12.77;;
2173;SDS011;1093;51.424;11.764;2022-11-20T12:26:35;25.07;;;12.60;;
2173;SDS011;1093;51.424;11.764;2022-11-20T12:29:13;23.23;;;14.00;;
2173;SDS011;1093;51.424;11.764;2022-11-20T12:31:57;25.67;;;14.07;;
2173;SDS011;1093;51.424;11.764;2022-11-20T12:34:39;26.63;;;12.60;;
2173;SDS011;1093;51.424;11.764;2022-11-20T12:37:14;21.90;;;13.50;;
2173;SDS011;1093;51.424;11.764;2022-11-20T12:39:52;27.03;;;12.93;;
2173;SDS011;1093;51.424;11.764;2022-11-20T12:48:29;24.53;;;13.23;;
2173;SDS011;1093;51.424;11.764;2022-11-20T12:51:09;29.47;;;13.83;;
2173;SDS011;1093;51.424;11.764;2022-11-20T12:54:03;25.37;;;13.30;;
2173;SDS011;1093;51.424;11.764;2022-11-20T12:56:46;26.23;;;12.27;;
2173;SDS011;1093;51.424;11.764;2022-11-20T12:59:31;23.10;;;12.30;;
2173;SDS011;1093;51.424;11.764;2022-11-20T13:02:19;28.27;;;12.43;;
2173;SDS011;1093;51.424;11.764;2022-11-20T13:04:55;22.17;;;12.10;;
2173;SDS011;1093;51.424;11.764;2022-11-20T13:07:37;28.03;;;12.37;;
2173;SDS011;1093;51.424;11.764;2022-11-20T13:10:06;19.53;;;11.37;;
2173;SDS011;1093;51.424;11.764;2022-11-20T13:12:44;24.03;;;12.63;;
2173;SDS011;1093;51.424;11.764;2022-11-20T13:15:17;26.23;;;13.03;;
2173;SDS011;1093;51.424;11.764;2022-11-20T13:17:58;18.03;;;11.70;;
2173;SDS011;1093;51.424;11.764;2022-11-20T13:20:27;24.73;;;14.07;;
2173;SDS011;1093;51.424;11.764;2022-11-20T13:22:55;21.63;;;13.93;;
2173;SDS011;1093;51.424;11.764;2022-11-20T13:25:25;24.43;;;12.73;;
2173;SDS011;1093;51.424;11.764;2022-11-20T13:27:53;24.20;;;12.20;;
2173;SDS011;1093;51.424;11.764;2022-11-20T13:30:22;21.80;;;13.53;;
2173;SDS011;1093;51.424;11.764;2022-11-20T13:32:51;25.50;;;13.00;;
2173;SDS011;1093;51.424;11.764;2022-11-20T13:35:27;20.93;;;11.60;;
2173;SDS011;1093;51.424;11.764;2022-11-20T13:38:05;23.27;;;11.67;;
2173;SDS011;1093;51.424;11.764;2022-11-20T13:40:35;18.30;;;11.40;;
2173;SDS011;1093;51.424;11.764;2022-11-20T13:43:07;22.73;;;12.87;;
2173;SDS011;1093;51.424;11.764;2022-11-20T13:45:41;25.07;;;13.20;;
2173;SDS011;1093;51.424;11.764;2022-11-20T13:48:18;19.07;;;11.93;;
2173;SDS011;1093;51.424;11.764;2022-11-20T13:50:51;23.17;;;12.23;;
2173;SDS011;1093;51.424;11.764;2022-11-20T13:53:32;23.67;;;12.60;;
2173;SDS011;1093;51.424;11.764;2022-11-20T13:56:17;19.50;;;11.73;;
2173;SDS011;1093;51.424;11.764;2022-11-20T13:58:52;28.40;;;12.80;;
2173;SDS011;1093;51.424;11.764;2022-11-20T14:01:29;19.70;;;10.80;;
2173;SDS011;1093;51.424;11.764;2022-11-20T14:03:57;16.27;;;10.43;;
2173;SDS011;1093;51.424;11.764;2022-11-20T14:06:25;18.57;;;10.57;;
2173;SDS011;1093;51.424;11.764;2022-11-20T14:08:55;14.53;;;8.27;;
2173;SDS011;1093;51.424;11.764;2022-11-20T14:11:24;21.00;;;12.50;;
2173;SDS011;1093;51.424;11.764;2022-11-20T14:13:52;15.10;;;10.10;;
2173;SDS011;1093;51.424;11.764;2022-11-20T14:16:22;15.50;;;9.80;;
2173;SDS011;1093;51.424;11.764;2022-11-20T14:18:49;16.77;;;10.33;;
2173;SDS011;1093;51.424;11.764;2022-11-20T14:21:23;16.07;;;8.90;;
2173;SDS011;1093;51.424;11.764;2022-11-20T14:23:54;19.53;;;10.57;;
2173;SDS011;1093;51.424;11.764;2022-11-20T14:26:31;19.23;;;10.43;;
2173;SDS011;1093;51.424;11.764;2022-11-20T14:28:58;16.10;;;9.03;;
2173;SDS011;1093;51.424;11.764;2022-11-20T14:31:27;16.50;;;10.53;;
2173;SDS011;1093;51.424;11.764;2022-11-20T14:33:54;17.00;;;8.70;;
2173;SDS011;1093;51.424;11.764;2022-11-20T14:36:23;16.90;;;8.60;;
2173;SDS011;1093;51.424;11.764;2022-11-20T14:38:51;18.00;;;8.60;;
2173;SDS011;1093;51.424;11.764;2022-11-20T14:41:20;12.97;;;8.43;;
2173;SDS011;1093;51.424;11.764;2022-11-20T14:43:50;14.83;;;8.13;;
2173;SDS011;1093;51.424;11.764;2022-11-20T14:46:19;16.57;;;9.33;;
2173;SDS011;1093;51.424;11.764;2022-11-20T14:48:47;17.20;;;9.20;;
2173;SDS011;1093;51.424;11.764;2022-11-20T14:51:30;13.30;;;8.03;;
2173;SDS011;1093;51.424;11.764;2022-11-20T14:54:09;16.83;;;9.40;;
2173;SDS011;1093;51.424;11.764;2022-11-20T14:56:36;17.33;;;10.20;;
2173;SDS011;1093;51.424;11.764;2022-11-20T14:59:05;15.87;;;9.20;;
2173;SDS011;1093;51.424;11.764;2022-11-20T15:01:33;17.00;;;9.43;;
2173;SDS011;1093;51.424;11.764;2022-11-20T15:04:01;14.93;;;8.93;;